Time;durP1;ratioP1;P1;durP2;ratioP2;P2;SDS_P1;SDS_P2;PMS_P1;PMS_P2;Temp;Humidity;BMP_temperature;BMP_pressure;BME280_temperature;BME280_humidity;BME280_pressure;Samples;Min_cycle;Max_cycle;Signal;HPM_P1;HPM_P2
2022/01/22 00:02:07;;;;;;;19.35;3.13;;;6.50;99.90;;;;;;5077770;28;20486;-72
2022/01/22 00:04:34;;;;;;;21.70;2.90;;;6.60;99.90;;;;;;5077784;28;20043;-72
2022/01/22 00:07:02;;;;;;;20.02;3.75;;;6.60;99.90;;;;;;5077677;28;20085;-72
2022/01/22 00:09:35;;;;;;;23.30;3.75;;;6.60;99.90;;;;;;5077697;28;20525;-72
2022/01/22 00:12:01;;;;;;;24.55;3.70;;;6.60;99.90;;;;;;5077701;28;20044;-72
2022/01/22 00:14:27;;;;;;;22.13;3.28;;;6.60;99.90;;;;;;5077550;28;20047;-72
2022/01/22 00:16:56;;;;;;;17.88;3.28;;;6.60;99.90;;;;;;5077476;28;20040;-72
2022/01/22 00:19:22;;;;;;;22.00;3.22;;;6.60;99.90;;;;;;5077594;28;20046;-72
2022/01/22 00:21:48;;;;;;;15.57;2.75;;;6.60;99.90;;;;;;5060785;28;20123;-72
2022/01/22 00:24:14;;;;;;;21.42;3.35;;;6.60;99.90;;;;;;5077445;28;20040;-72
2022/01/22 00:26:41;;;;;;;21.90;2.95;;;6.60;99.90;;;;;;5077370;28;20044;-72
2022/01/22 00:29:07;;;;;;;23.27;3.40;;;6.60;99.90;;;;;;5077609;28;20044;-72
2022/01/22 00:31:33;;;;;;;17.70;3.13;;;6.60;99.90;;;;;;5077628;28;20079;-72
2022/01/22 00:33:59;;;;;;;18.30;3.30;;;6.60;99.90;;;;;;5077230;28;20501;-72
2022/01/22 00:36:25;;;;;;;17.33;3.25;;;6.60;99.90;;;;;;5076986;28;20052;-72
2022/01/22 00:38:50;;;;;;;18.83;2.78;;;6.60;99.90;;;;;;5077231;28;20036;-72
2022/01/22 00:41:16;;;;;;;24.67;3.30;;;6.60;99.90;;;;;;5077273;28;20119;-72
2022/01/22 00:43:42;;;;;;;18.50;2.85;;;6.60;99.90;;;;;;5077326;28;20044;-72
2022/01/22 00:46:07;;;;;;;22.13;3.30;;;6.70;99.90;;;;;;5076664;28;20512;-73
2022/01/22 00:48:33;;;;;;;23.10;3.00;;;6.70;99.90;;;;;;5076809;28;20158;-72
2022/01/22 00:51:00;;;;;;;25.60;3.33;;;6.70;99.90;;;;;;5076982;28;20051;-72
2022/01/22 00:53:26;;;;;;;22.70;3.35;;;6.70;99.90;;;;;;5076862;28;20493;-72
2022/01/22 00:55:52;;;;;;;21.25;3.45;;;6.70;99.90;;;;;;5076736;28;20043;-72
2022/01/22 00:58:17;;;;;;;29.65;4.10;;;6.70;99.90;;;;;;5094914;28;20040;-72
2022/01/22 01:00:43;;;;;;;23.50;2.97;;;6.70;99.90;;;;;;5076616;28;20040;-72
2022/01/22 01:03:09;;;;;;;26.92;3.78;;;6.70;99.90;;;;;;5076926;28;20036;-72
2022/01/22 01:05:35;;;;;;;24.25;3.13;;;6.70;99.90;;;;;;5094696;28;20509;-72
2022/01/22 01:08:01;;;;;;;22.15;3.20;;;6.70;99.90;;;;;;5076487;28;20040;-72
2022/01/22 01:10:27;;;;;;;21.92;3.25;;;6.70;99.90;;;;;;5076736;28;20044;-72
2022/01/22 01:12:52;;;;;;;18.40;3.15;;;6.70;99.90;;;;;;5076678;28;20087;-72
2022/01/22 01:34:19;;;;;;;15.52;2.95;;;6.80;99.90;;;;;;5076038;28;20071;-72
2022/01/22 01:36:45;;;;;;;14.50;2.45;;;6.80;99.90;;;;;;5075782;28;20036;-72
2022/01/22 01:39:16;;;;;;;19.17;2.88;;;6.80;99.90;;;;;;5075926;28;20044;-72
2022/01/22 01:44:28;;;;;;;16.10;2.50;;;6.80;99.90;;;;;;5075912;28;20044;-72
2022/01/22 01:47:00;;;;;;;18.30;2.92;;;6.80;99.90;;;;;;5075722;28;20040;-72
2022/01/22 01:49:27;;;;;;;18.23;3.13;;;6.80;99.90;;;;;;5075851;28;20032;-72
2022/01/22 01:51:56;;;;;;;19.58;2.45;;;6.80;99.90;;;;;;5075673;28;20532;-72
2022/01/22 01:59:39;;;;;;;21.27;2.80;;;6.90;99.90;;;;;;5074777;28;20048;-72
2022/01/22 02:02:05;;;;;;;16.52;2.92;;;6.80;99.90;;;;;;5075412;28;20413;-72
2022/01/22 02:04:31;;;;;;;15.88;3.10;;;6.80;99.90;;;;;;5075837;28;20028;-72
2022/01/22 02:06:57;;;;;;;12.20;2.33;;;6.80;99.90;;;;;;5075383;28;20510;-72
2022/01/22 02:09:23;;;;;;;16.88;2.92;;;6.80;99.90;;;;;;5075394;28;20065;-73
2022/01/22 02:11:58;;;;;;;15.20;2.40;;;6.90;99.90;;;;;;5075444;28;20086;-73
2022/01/22 02:25:21;;;;;;;10.75;2.03;;;6.90;99.90;;;;;;5075533;28;20040;-72
2022/01/22 02:27:47;;;;;;;11.68;1.83;;;6.90;99.90;;;;;;5075197;28;20501;-72
2022/01/22 02:30:19;;;;;;;13.50;1.85;;;6.90;99.90;;;;;;5075108;28;20078;-72
2022/01/22 02:35:50;;;;;;;11.38;1.90;;;6.90;99.90;;;;;;5031285;28;20094;-72
2022/01/22 02:38:23;;;;;;;12.43;1.98;;;6.90;99.90;;;;;;5058352;28;20044;-72
2022/01/22 02:40:49;;;;;;;10.23;1.67;;;6.90;99.90;;;;;;5075165;28;20051;-73
2022/01/22 02:43:17;;;;;;;12.90;2.15;;;6.90;99.90;;;;;;5075071;28;20159;-73
2022/01/22 02:45:46;;;;;;;13.25;1.95;;;6.90;99.90;;;;;;5075031;28;20047;-73
2022/01/22 02:48:12;;;;;;;10.20;1.70;;;6.90;99.90;;;;;;5074952;28;20093;-73
2022/01/22 02:50:37;;;;;;;9.93;1.60;;;6.90;99.90;;;;;;5074987;28;20067;-73
2022/01/22 02:53:08;;;;;;;10.55;1.63;;;6.90;99.90;;;;;;5075000;28;20071;-73
2022/01/22 02:55:34;;;;;;;8.90;1.77;;;6.90;99.90;;;;;;5074974;28;20036;-73
2022/01/22 02:58:00;;;;;;;9.45;2.03;;;6.90;99.90;;;;;;5074892;28;20066;-72
2022/01/22 03:00:27;;;;;;;9.32;1.75;;;6.90;99.90;;;;;;5074874;28;20478;-73
2022/01/22 03:02:52;;;;;;;15.13;2.05;;;6.90;99.90;;;;;;5074838;28;20044;-73
2022/01/22 03:05:19;;;;;;;7.90;1.40;;;6.90;99.90;;;;;;5075092;28;20464;-73
2022/01/22 03:07:50;;;;;;;9.95;2.03;;;6.90;99.90;;;;;;5074712;28;20491;-72
2022/01/22 03:10:20;;;;;;;7.20;1.30;;;6.90;99.90;;;;;;5076444;28;20127;-72
2022/01/22 03:12:54;;;;;;;9.50;1.60;;;6.90;99.90;;;;;;5078822;28;20054;-72
2022/01/22 03:18:36;;;;;;;7.50;1.50;;;6.90;99.90;;;;;;4998554;28;20488;-72
2022/01/22 03:21:10;;;;;;;11.40;1.65;;;6.90;99.90;;;;;;5070750;28;20059;-73
2022/01/22 03:29:09;;;;;;;6.85;1.45;;;6.90;99.90;;;;;;5078703;28;20040;-72
2022/01/22 03:31:36;;;;;;;8.10;1.65;;;6.90;99.90;;;;;;5078723;28;20040;-72
2022/01/22 03:34:02;;;;;;;8.98;1.50;;;6.90;99.90;;;;;;5061738;28;20048;-73
2022/01/22 03:36:30;;;;;;;7.18;1.70;;;6.90;99.90;;;;;;5078448;28;20521;-73
2022/01/22 03:38:56;;;;;;;11.35;1.95;;;6.90;99.90;;;;;;5078292;28;20048;-72
2022/01/22 03:41:23;;;;;;;7.38;1.63;;;6.90;99.90;;;;;;5078351;28;20093;-72
2022/01/22 03:43:50;;;;;;;8.80;1.70;;;6.90;99.90;;;;;;5078208;28;20051;-72
2022/01/22 03:46:16;;;;;;;9.88;1.50;;;6.90;99.90;;;;;;5078317;28;20058;-72
2022/01/22 03:48:42;;;;;;;7.28;1.50;;;6.90;99.90;;;;;;5078402;28;20425;-72
2022/01/22 03:51:07;;;;;;;7.93;1.30;;;6.90;99.90;;;;;;5078041;28;20486;-72
2022/01/22 03:53:33;;;;;;;6.93;1.55;;;6.90;99.90;;;;;;5096167;28;20085;-73
2022/01/22 03:56:06;;;;;;;8.18;1.40;;;6.90;99.90;;;;;;5078183;28;20079;-72
2022/01/22 03:58:40;;;;;;;8.95;1.83;;;6.90;99.90;;;;;;5077943;28;20513;-72
2022/01/22 04:01:46;;;;;;;9.88;1.95;;;6.90;99.90;;;;;;5077863;28;20048;-72
2022/01/22 04:04:11;;;;;;;8.23;1.50;;;6.80;99.90;;;;;;5078462;28;20040;-72
2022/01/22 04:07:17;;;;;;;11.10;2.00;;;6.80;99.90;;;;;;5077894;28;20040;-72
2022/01/22 04:09:35;;;;;;;10.25;1.48;;;6.80;99.90;;;;;;5078362;28;20140;-72
2022/01/22 04:12:01;;;;;;;7.28;1.58;;;6.80;99.90;;;;;;5077710;28;20119;-72
2022/01/22 04:14:32;;;;;;;9.18;1.65;;;6.80;99.90;;;;;;5060872;28;20036;-73
2022/01/22 04:17:23;;;;;;;8.43;1.75;;;6.90;99.90;;;;;;5077585;28;20039;-72
2022/01/22 04:25:22;;;;;;;7.30;1.77;;;6.90;99.90;;;;;;5077473;28;20417;-72
2022/01/22 04:27:48;;;;;;;10.50;1.67;;;6.90;99.90;;;;;;5077662;28;20059;-72
2022/01/22 04:30:14;;;;;;;8.60;1.48;;;6.90;99.90;;;;;;5077340;28;20477;-72
2022/01/22 04:32:39;;;;;;;8.93;1.77;;;6.90;99.90;;;;;;5077364;28;20052;-72
2022/01/22 04:35:05;;;;;;;12.40;1.85;;;6.90;99.90;;;;;;5077269;28;20173;-72
2022/01/22 04:37:31;;;;;;;10.05;1.70;;;6.90;99.90;;;;;;5077011;28;20048;-72
2022/01/22 04:39:56;;;;;;;8.43;1.95;;;6.90;99.90;;;;;;5095816;28;20043;-72
2022/01/22 04:42:23;;;;;;;7.85;1.60;;;6.90;99.90;;;;;;5077065;28;20526;-72
2022/01/22 04:45:14;;;;;;;8.27;1.40;;;6.80;99.90;;;;;;5077092;28;20452;-72
2022/01/22 04:47:57;;;;;;;6.43;1.55;;;6.80;99.90;;;;;;5076920;28;20524;-72
2022/01/22 04:55:39;;;;;;;7.25;1.83;;;6.80;99.90;;;;;;5076837;28;20050;-72
2022/01/22 04:58:06;;;;;;;9.93;1.70;;;6.80;99.90;;;;;;5076697;28;20467;-72
2022/01/22 05:00:34;;;;;;;8.20;1.67;;;6.80;99.90;;;;;;5076994;28;20124;-72
2022/01/22 05:03:01;;;;;;;10.27;1.90;;;6.80;99.90;;;;;;5076698;28;20036;-73
2022/01/22 05:05:27;;;;;;;12.93;2.22;;;6.80;99.90;;;;;;5076624;28;20036;-73
2022/01/22 05:07:53;;;;;;;9.65;1.92;;;6.80;99.90;;;;;;5076520;28;20052;-73
2022/01/22 05:10:19;;;;;;;10.77;1.90;;;6.80;99.90;;;;;;5076554;28;20040;-73
2022/01/22 05:12:45;;;;;;;8.35;1.70;;;6.80;99.90;;;;;;5076745;28;20036;-72
2022/01/22 05:15:12;;;;;;;8.25;1.60;;;6.80;99.90;;;;;;5076687;28;20044;-72
2022/01/22 05:17:41;;;;;;;7.63;1.60;;;6.80;99.90;;;;;;5076325;28;20075;-72
2022/01/22 05:20:16;;;;;;;7.03;1.73;;;6.80;99.90;;;;;;5076448;28;20047;-72
2022/01/22 05:22:53;;;;;;;6.60;1.40;;;6.80;99.90;;;;;;5076342;28;20040;-72
2022/01/22 05:25:23;;;;;;;7.20;1.50;;;6.80;99.90;;;;;;5076372;28;20426;-72
2022/01/22 05:38:34;;;;;;;7.43;1.50;;;6.80;99.90;;;;;;5075987;28;20044;-72
2022/01/22 05:41:00;;;;;;;5.50;1.40;;;6.80;99.90;;;;;;5075916;28;20044;-72
2022/01/22 05:43:26;;;;;;;7.32;1.15;;;6.80;99.90;;;;;;5075855;28;20043;-72
2022/01/22 05:45:52;;;;;;;3.55;1.05;;;6.80;99.90;;;;;;5075853;28;20042;-72
2022/01/22 05:48:17;;;;;;;6.28;1.50;;;6.80;99.90;;;;;;5093960;28;20042;-72
2022/01/22 05:50:50;;;;;;;6.57;1.30;;;6.80;99.90;;;;;;5075819;28;20044;-72
2022/01/22 05:53:34;;;;;;;6.60;1.43;;;6.80;99.90;;;;;;5075799;28;20046;-72
2022/01/22 06:01:16;;;;;;;5.78;1.30;;;6.80;99.90;;;;;;5075568;28;20081;-72
2022/01/22 06:03:43;;;;;;;8.48;1.45;;;6.80;99.90;;;;;;5075642;28;20032;-72
2022/01/22 06:06:09;;;;;;;6.35;1.30;;;6.80;99.90;;;;;;5075711;28;20448;-72
2022/01/22 06:08:41;;;;;;;8.45;1.23;;;6.80;99.90;;;;;;5075704;28;20039;-72
2022/01/22 06:11:09;;;;;;;9.98;2.25;;;6.80;99.90;;;;;;5075721;28;20052;-73
2022/01/22 06:13:46;;;;;;;7.20;1.45;;;6.80;99.90;;;;;;5075437;28;20080;-73
2022/01/22 06:16:22;;;;;;;9.23;1.58;;;6.80;99.90;;;;;;5075340;28;20047;-73
2022/01/22 06:18:48;;;;;;;7.60;1.73;;;6.80;99.90;;;;;;5075653;28;20043;-73
2022/01/22 06:21:14;;;;;;;9.38;1.83;;;6.80;99.90;;;;;;5075218;28;20062;-73
2022/01/22 06:23:41;;;;;;;10.20;1.65;;;6.80;99.90;;;;;;5075299;28;20048;-73
2022/01/22 06:26:07;;;;;;;10.48;1.95;;;6.80;99.90;;;;;;5093579;28;20032;-73
2022/01/22 06:28:34;;;;;;;5.15;1.98;;;6.80;99.90;;;;;;5075422;28;20115;-73
2022/01/22 06:31:00;;;;;;;8.52;2.63;;;6.80;99.90;;;;;;5075199;28;20047;-73
2022/01/22 06:33:27;;;;;;;16.20;2.47;;;6.80;99.90;;;;;;5075162;28;20043;-73
2022/01/22 06:35:53;;;;;;;9.35;2.08;;;6.80;99.90;;;;;;5074969;28;20040;-72
2022/01/22 06:38:19;;;;;;;7.82;1.90;;;6.80;99.90;;;;;;5075128;28;20088;-72
2022/01/22 06:43:30;;;;;;;12.15;2.35;;;6.70;99.90;;;;;;5075378;28;20047;-72
2022/01/22 06:45:55;;;;;;;11.30;2.53;;;6.70;99.90;;;;;;5074481;28;20112;-72
2022/01/22 06:48:21;;;;;;;10.75;2.78;;;6.70;99.90;;;;;;5075064;28;20122;-72
2022/01/22 06:50:47;;;;;;;7.93;2.47;;;6.80;99.90;;;;;;5075037;28;20046;-72
2022/01/22 06:53:13;;;;;;;6.90;1.70;;;6.70;99.90;;;;;;5074935;28;20040;-72
2022/01/22 06:55:43;;;;;;;9.40;2.38;;;6.70;99.90;;;;;;5074970;28;20032;-72
2022/01/22 06:58:09;;;;;;;8.45;2.05;;;6.80;99.90;;;;;;5075113;28;20119;-72
2022/01/22 07:00:34;;;;;;;7.15;1.92;;;6.70;99.90;;;;;;5074978;28;20064;-72
2022/01/22 07:03:01;;;;;;;6.80;1.88;;;6.80;99.90;;;;;;5074906;28;20036;-72
2022/01/22 07:05:27;;;;;;;5.32;1.60;;;6.80;99.90;;;;;;5074821;28;20055;-72
2022/01/22 07:07:52;;;;;;;7.05;1.75;;;6.70;99.90;;;;;;5074790;28;20028;-72
2022/01/22 07:10:18;;;;;;;6.45;1.70;;;6.70;99.90;;;;;;5075055;28;20043;-72
2022/01/22 07:12:44;;;;;;;7.18;1.70;;;6.70;99.90;;;;;;5075056;28;20097;-72
2022/01/22 07:15:09;;;;;;;7.07;1.95;;;6.70;99.90;;;;;;5074816;28;20464;-72
2022/01/22 07:17:37;;;;;;;5.45;1.80;;;6.70;99.90;;;;;;5074675;28;20047;-72
2022/01/22 07:20:04;;;;;;;8.70;1.80;;;6.70;99.90;;;;;;5074905;28;20090;-72
2022/01/22 07:22:39;;;;;;;5.88;1.48;;;6.70;99.90;;;;;;5074613;28;20098;-72
2022/01/22 07:25:05;;;;;;;7.38;1.70;;;6.60;99.90;;;;;;5074970;28;20075;-72
2022/01/22 07:27:30;;;;;;;6.78;1.48;;;6.60;99.90;;;;;;5074628;28;20051;-72
2022/01/22 07:29:56;;;;;;;6.32;1.58;;;6.60;99.90;;;;;;5074622;28;20045;-72
2022/01/22 07:32:33;;;;;;;5.70;1.40;;;6.60;99.90;;;;;;5074929;28;20039;-72
2022/01/22 07:34:59;;;;;;;6.95;1.50;;;6.60;99.90;;;;;;5074687;28;20052;-72
2022/01/22 07:37:24;;;;;;;5.18;1.10;;;6.50;99.90;;;;;;5074599;28;20040;-72
2022/01/22 07:39:50;;;;;;;7.40;1.08;;;6.60;99.90;;;;;;5074835;28;20477;-72
2022/01/22 07:42:16;;;;;;;6.07;1.50;;;6.50;99.90;;;;;;5074457;28;20567;-72
2022/01/22 07:44:42;;;;;;;3.83;0.80;;;6.60;99.90;;;;;;5092599;28;20040;-72
2022/01/22 07:47:08;;;;;;;2.42;0.90;;;6.50;99.90;;;;;;5074440;28;20411;-72
2022/01/22 07:49:33;;;;;;;5.30;1.30;;;6.50;99.90;;;;;;5074720;28;20097;-72
2022/01/22 07:51:59;;;;;;;4.93;1.13;;;6.50;99.90;;;;;;5074752;28;20588;-72
2022/01/22 07:54:25;;;;;;;6.05;1.15;;;6.50;99.90;;;;;;5074693;28;20555;-72
2022/01/22 07:56:50;;;;;;;5.00;1.02;;;6.50;99.90;;;;;;5075092;28;20483;-72
2022/01/22 07:59:16;;;;;;;5.00;1.00;;;6.50;99.90;;;;;;5077991;28;20066;-72
2022/01/22 08:01:41;;;;;;;5.35;1.15;;;6.50;99.90;;;;;;5077813;28;20040;-72
2022/01/22 08:04:07;;;;;;;3.55;1.05;;;6.50;99.90;;;;;;5078432;28;20038;-72
2022/01/22 08:06:32;;;;;;;4.13;1.00;;;6.50;99.90;;;;;;5077854;28;20054;-72
2022/01/22 08:08:58;;;;;;;5.60;1.35;;;6.50;99.90;;;;;;5077802;28;20138;-72
2022/01/22 08:11:24;;;;;;;8.30;1.33;;;6.50;99.90;;;;;;5077657;28;20089;-72
2022/01/22 08:13:50;;;;;;;4.25;1.48;;;6.50;99.90;;;;;;5077942;28;20040;-72
2022/01/22 08:16:15;;;;;;;7.10;1.50;;;6.50;99.90;;;;;;5077888;28;20397;-72
2022/01/22 08:18:41;;;;;;;10.65;1.45;;;6.50;99.90;;;;;;5077784;28;20512;-72
2022/01/22 08:21:06;;;;;;;5.45;1.27;;;6.50;99.90;;;;;;5077464;28;20067;-72
2022/01/22 08:23:33;;;;;;;7.20;1.38;;;6.50;99.90;;;;;;5077507;28;20063;-72
2022/01/22 08:25:58;;;;;;;6.45;1.30;;;6.60;99.90;;;;;;5077371;28;20040;-72
2022/01/22 08:36:50;;;;;;;6.63;1.60;;;6.60;99.90;;;;;;5077306;28;20127;-72
2022/01/22 08:39:17;;;;;;;10.30;1.70;;;6.60;99.90;;;;;;5077221;28;20036;-72
2022/01/22 08:41:44;;;;;;;10.60;1.60;;;6.60;99.90;;;;;;5077119;28;20043;-72
2022/01/22 08:44:11;;;;;;;5.05;1.70;;;6.60;99.90;;;;;;5077031;28;20036;-72
2022/01/22 08:46:37;;;;;;;9.68;2.58;;;6.60;99.90;;;;;;5076849;28;20036;-72
2022/01/22 08:49:07;;;;;;;11.07;2.10;;;6.60;99.90;;;;;;5077215;28;20158;-72
2022/01/22 08:51:35;;;;;;;6.63;1.88;;;6.70;99.90;;;;;;5076992;28;20046;-72
2022/01/22 08:54:01;;;;;;;11.30;2.00;;;6.70;99.90;;;;;;5077122;28;20494;-72
2022/01/22 08:56:28;;;;;;;9.80;2.35;;;6.70;99.90;;;;;;5076772;28;20093;-72
2022/01/22 08:58:55;;;;;;;9.80;1.95;;;6.70;99.90;;;;;;5077058;28;20088;-71
2022/01/22 09:01:20;;;;;;;10.35;1.85;;;6.70;99.90;;;;;;5076726;28;20040;-72
2022/01/22 09:03:46;;;;;;;12.30;2.55;;;6.70;99.90;;;;;;5076628;28;20042;-72
2022/01/22 09:06:12;;;;;;;12.15;2.15;;;6.70;99.90;;;;;;5076811;28;20048;-72
2022/01/22 09:08:41;;;;;;;9.70;2.13;;;6.70;99.90;;;;;;5076194;28;20040;-72
2022/01/22 09:11:07;;;;;;;10.38;1.88;;;6.70;99.90;;;;;;5076534;28;20040;-72
2022/01/22 09:13:33;;;;;;;14.25;2.60;;;6.70;99.90;;;;;;5076816;28;20139;-72
2022/01/22 09:15:59;;;;;;;10.23;1.85;;;6.70;99.90;;;;;;5076422;28;20036;-72
2022/01/22 09:18:25;;;;;;;10.98;2.20;;;6.70;99.90;;;;;;5076412;28;20043;-72
2022/01/22 09:23:17;;;;;;;8.98;1.95;;;6.80;99.90;;;;;;5076261;28;20403;-72
2022/01/22 09:25:45;;;;;;;7.80;2.28;;;6.80;99.90;;;;;;5076239;28;20065;-72
2022/01/22 09:28:12;;;;;;;11.77;2.40;;;6.80;99.90;;;;;;5076395;28;20032;-72
2022/01/22 09:30:42;;;;;;;13.57;2.38;;;6.80;99.90;;;;;;5076142;28;20112;-72
2022/01/22 09:33:08;;;;;;;14.77;2.80;;;6.80;99.90;;;;;;5076367;28;20119;-72
2022/01/22 09:35:34;;;;;;;11.55;2.58;;;6.80;99.90;;;;;;5076057;28;20131;-72
2022/01/22 09:37:59;;;;;;;15.40;3.00;;;6.80;99.90;;;;;;5094045;28;20028;-72
2022/01/22 09:40:30;;;;;;;11.95;2.80;;;6.80;99.90;;;;;;5076046;28;20516;-72
2022/01/22 09:42:59;;;;;;;10.32;2.30;;;6.80;99.90;;;;;;5075847;28;20505;-72
2022/01/22 09:45:25;;;;;;;10.15;2.40;;;6.90;99.90;;;;;;5075941;28;20052;-72
2022/01/22 09:47:51;;;;;;;11.00;2.47;;;6.90;99.90;;;;;;5059326;28;20394;-72
2022/01/22 09:50:19;;;;;;;11.15;2.85;;;6.90;99.90;;;;;;5075804;28;20489;-72
2022/01/22 09:52:45;;;;;;;12.77;2.80;;;6.90;99.90;;;;;;5075779;28;20051;-72
2022/01/22 09:55:12;;;;;;;13.85;2.40;;;6.90;99.90;;;;;;5075971;28;20043;-72
2022/01/22 09:57:38;;;;;;;11.98;2.50;;;7.00;99.90;;;;;;5075652;28;20048;-72
2022/01/22 10:00:07;;;;;;;9.52;2.60;;;7.00;99.90;;;;;;5075850;28;20047;-72
2022/01/22 10:02:43;;;;;;;14.18;2.85;;;7.00;99.90;;;;;;5058770;28;20085;-72
2022/01/22 10:05:27;;;;;;;14.57;3.13;;;7.00;99.90;;;;;;5075608;28;20040;-72
2022/01/22 10:07:53;;;;;;;14.40;3.28;;;7.00;99.90;;;;;;5075468;28;20498;-72
2022/01/22 10:10:19;;;;;;;13.88;3.20;;;6.90;99.90;;;;;;5075486;28;20048;-72
2022/01/22 10:12:48;;;;;;;12.95;2.80;;;6.90;99.90;;;;;;5075479;28;20128;-72
2022/01/22 10:15:16;;;;;;;10.48;3.10;;;6.90;99.90;;;;;;5093539;28;20036;-72
2022/01/22 10:17:46;;;;;;;15.63;2.90;;;6.90;99.90;;;;;;5093547;28;20097;-72
2022/01/22 10:20:21;;;;;;;13.57;2.88;;;7.00;99.90;;;;;;5074920;28;20036;-72
2022/01/22 10:22:59;;;;;;;10.82;2.88;;;7.00;99.90;;;;;;5075237;28;20127;-72
2022/01/22 10:25:35;;;;;;;15.90;3.42;;;7.00;99.90;;;;;;5075356;28;20094;-72
2022/01/22 10:28:06;;;;;;;13.27;2.40;;;7.00;99.90;;;;;;5075498;28;20040;-72
2022/01/22 10:30:42;;;;;;;9.23;2.92;;;7.00;99.90;;;;;;5075246;28;20525;-72
2022/01/22 10:33:38;;;;;;;14.90;2.83;;;7.00;99.90;;;;;;5075450;28;20138;-72
2022/01/22 10:36:17;;;;;;;14.63;2.78;;;7.10;99.90;;;;;;5074946;28;20054;-73
2022/01/22 10:38:52;;;;;;;12.23;3.08;;;7.10;99.90;;;;;;5075921;28;20119;-73
2022/01/22 10:41:38;;;;;;;13.10;2.95;;;7.10;99.90;;;;;;5075048;28;20079;-73
2022/01/22 10:44:07;;;;;;;14.23;3.05;;;7.10;99.90;;;;;;5075068;28;20055;-73
2022/01/22 10:47:02;;;;;;;9.75;2.15;;;7.10;99.90;;;;;;5074981;28;20490;-73
2022/01/22 10:49:27;;;;;;;16.88;2.90;;;7.20;99.90;;;;;;5075274;28;20040;-72
2022/01/22 10:52:03;;;;;;;13.77;2.92;;;7.10;99.90;;;;;;5075305;28;20047;-72
2022/01/22 10:54:34;;;;;;;13.23;2.38;;;7.10;99.90;;;;;;5075445;28;20079;-72
2022/01/22 10:57:11;;;;;;;11.88;2.15;;;7.20;99.90;;;;;;5075660;28;20520;-72
2022/01/22 10:59:36;;;;;;;13.00;2.47;;;7.20;99.90;;;;;;5075365;28;20058;-72
2022/01/22 11:02:04;;;;;;;13.48;2.25;;;7.20;99.90;;;;;;5074806;28;20414;-72
2022/01/22 11:04:42;;;;;;;15.15;2.92;;;7.20;99.90;;;;;;5074865;28;20043;-72
2022/01/22 11:07:10;;;;;;;16.52;2.80;;;7.20;99.90;;;;;;5074801;28;20036;-72
2022/01/22 11:09:36;;;;;;;13.68;2.90;;;7.20;99.90;;;;;;5074729;28;20081;-72
2022/01/22 11:12:04;;;;;;;13.77;2.17;;;7.30;99.90;;;;;;5074787;28;20414;-72
2022/01/22 11:14:32;;;;;;;16.00;2.38;;;7.30;99.90;;;;;;5057994;28;20093;-72
2022/01/22 11:16:58;;;;;;;14.02;2.35;;;7.30;99.90;;;;;;5074660;28;20405;-72
2022/01/22 11:19:30;;;;;;;13.15;2.17;;;7.30;99.90;;;;;;5074730;28;20047;-72
2022/01/22 11:21:59;;;;;;;16.83;2.40;;;7.30;99.90;;;;;;5074877;28;20062;-72
2022/01/22 11:24:25;;;;;;;17.52;2.50;;;7.30;99.90;;;;;;5058074;28;20036;-72
2022/01/22 11:26:58;;;;;;;11.30;2.30;;;7.30;99.90;;;;;;5074520;28;20050;-72
2022/01/22 11:29:28;;;;;;;10.20;2.58;;;7.30;99.90;;;;;;5074695;28;20111;-72
2022/01/22 11:31:56;;;;;;;14.57;2.25;;;7.30;99.90;;;;;;5077113;28;20055;-72
2022/01/22 11:34:25;;;;;;;13.63;2.13;;;7.30;99.90;;;;;;5078482;28;20040;-72
2022/01/22 11:37:09;;;;;;;11.90;2.50;;;7.30;99.90;;;;;;5078232;28;20084;-72
2022/01/22 11:39:35;;;;;;;13.48;2.55;;;7.30;99.90;;;;;;5078577;28;20062;-72
2022/01/22 11:42:01;;;;;;;17.20;2.65;;;7.30;99.90;;;;;;5078200;28;20483;-72
2022/01/22 11:44:40;;;;;;;16.02;2.70;;;7.30;99.90;;;;;;5078265;28;20036;-72
2022/01/22 11:47:12;;;;;;;13.20;2.40;;;7.30;99.90;;;;;;5078429;28;20032;-72
2022/01/22 11:49:38;;;;;;;16.70;3.10;;;7.30;99.90;;;;;;5078442;28;20076;-72
2022/01/22 11:52:13;;;;;;;13.98;2.67;;;7.30;99.90;;;;;;5078399;28;20528;-73
2022/01/22 11:54:59;;;;;;;11.80;2.92;;;7.30;99.90;;;;;;5078217;28;20122;-73
2022/01/22 11:57:28;;;;;;;16.10;3.58;;;7.30;99.90;;;;;;5078248;28;20063;-72
2022/01/22 12:00:26;;;;;;;15.35;3.08;;;7.20;99.90;;;;;;5078007;28;20040;-72
2022/01/22 12:03:06;;;;;;;14.70;4.43;;;7.30;99.90;;;;;;5078206;28;20044;-72
2022/01/22 12:05:32;;;;;;;14.15;3.60;;;7.30;99.90;;;;;;5077946;28;20032;-72
2022/01/22 12:08:00;;;;;;;17.77;4.03;;;7.20;99.90;;;;;;5077700;28;20047;-72
2022/01/22 12:10:40;;;;;;;16.20;3.72;;;7.30;99.90;;;;;;5077751;28;20055;-73
2022/01/22 12:16:08;;;;;;;16.05;3.80;;;7.30;99.90;;;;;;5077566;28;20040;-73
2022/01/22 12:18:38;;;;;;;15.80;3.83;;;7.20;99.90;;;;;;5077602;28;20040;-72
2022/01/22 12:23:32;;;;;;;13.85;3.80;;;7.30;99.90;;;;;;5078052;28;20048;-72
2022/01/22 12:26:00;;;;;;;12.20;4.20;;;7.30;99.90;;;;;;5077463;28;20047;-72
2022/01/22 12:28:41;;;;;;;20.75;4.53;;;7.30;99.90;;;;;;5077643;28;20040;-73
2022/01/22 12:31:10;;;;;;;18.17;4.32;;;7.30;99.90;;;;;;5077362;28;20118;-73
2022/01/22 12:33:38;;;;;;;20.98;3.85;;;7.30;99.90;;;;;;5077435;28;20061;-72
2022/01/22 12:36:12;;;;;;;20.52;4.38;;;7.30;99.90;;;;;;5060393;28;20044;-72
2022/01/22 12:38:47;;;;;;;16.85;3.80;;;7.30;99.90;;;;;;5060636;28;20032;-72
2022/01/22 12:42:24;;;;;;;15.00;3.33;;;7.30;99.90;;;;;;5077289;28;20118;-72
2022/01/22 12:44:33;;;;;;;14.27;3.22;;;7.30;99.90;;;;;;5058970;28;20525;-72
2022/01/22 12:47:09;;;;;;;11.60;2.97;;;7.30;99.90;;;;;;5077046;28;20551;-72
2022/01/22 12:49:36;;;;;;;13.57;3.10;;;7.30;99.90;;;;;;5077013;28;20036;-72
2022/01/22 12:52:05;;;;;;;15.32;3.55;;;7.20;99.90;;;;;;5076937;28;20040;-72
2022/01/22 12:54:38;;;;;;;14.90;3.42;;;7.30;99.90;;;;;;5077160;28;20047;-72
2022/01/22 12:57:11;;;;;;;15.40;3.45;;;7.30;99.90;;;;;;5076764;28;20055;-72
2022/01/22 12:59:49;;;;;;;;;;;7.30;99.90;;;;;;5077971;28;20062;-72
2022/01/22 13:02:15;;;;;;;16.40;3.17;;;7.30;99.90;;;;;;5076663;28;19920;-72
2022/01/22 13:04:41;;;;;;;13.90;2.90;;;7.30;99.90;;;;;;5076747;28;20125;-72
2022/01/22 13:07:13;;;;;;;14.27;3.45;;;7.30;99.90;;;;;;5076829;28;20388;-72
2022/01/22 13:09:51;;;;;;;11.35;2.55;;;7.30;99.90;;;;;;5076903;28;20055;-72
2022/01/22 13:12:17;;;;;;;12.13;2.35;;;7.40;99.90;;;;;;5076824;28;20498;-72
2022/01/22 13:14:43;;;;;;;13.10;2.90;;;7.30;99.90;;;;;;5077166;28;20055;-72
2022/01/22 13:17:13;;;;;;;9.95;2.58;;;7.30;99.90;;;;;;5076634;28;20040;-72
2022/01/22 13:19:40;;;;;;;10.65;2.67;;;7.30;99.90;;;;;;5076734;28;20094;-72
2022/01/22 13:22:06;;;;;;;13.50;2.38;;;7.30;99.90;;;;;;5076515;28;20044;-72
2022/01/22 13:24:32;;;;;;;14.05;2.40;;;7.30;99.90;;;;;;5076308;28;20493;-72
2022/01/22 13:27:09;;;;;;;11.73;2.67;;;7.30;99.90;;;;;;5076137;28;20040;-72
2022/01/22 13:29:43;;;;;;;13.55;2.88;;;7.30;99.90;;;;;;5076247;28;20052;-72
2022/01/22 13:32:27;;;;;;;13.18;2.85;;;7.30;99.90;;;;;;5076280;28;20506;-72
2022/01/22 13:38:52;;;;;;;11.68;2.30;;;7.30;99.90;;;;;;5076036;28;20047;-72
2022/01/22 13:41:02;;;;;;;13.80;2.30;;;7.30;99.90;;;;;;5062820;28;20062;-72
2022/01/22 13:49:05;;;;;;;13.18;2.47;;;7.30;99.90;;;;;;5075832;28;20123;-72
2022/01/22 13:51:32;;;;;;;12.75;2.25;;;7.30;99.90;;;;;;5075841;28;20040;-72
2022/01/22 13:53:59;;;;;;;14.10;2.10;;;7.30;99.90;;;;;;5075704;28;20047;-72
2022/01/22 13:56:46;;;;;;;13.73;2.45;;;7.30;99.90;;;;;;5075580;28;20447;-72
2022/01/22 13:59:20;;;;;;;12.05;1.90;;;7.30;99.90;;;;;;5059138;28;20413;-72
2022/01/22 14:02:03;;;;;;;13.70;2.55;;;7.20;99.90;;;;;;5075507;28;20473;-72
2022/01/22 14:04:37;;;;;;;11.32;2.00;;;7.20;99.90;;;;;;5075838;28;20046;-72
2022/01/22 14:07:15;;;;;;;11.63;2.40;;;7.20;99.90;;;;;;5075516;28;20039;-72
2022/01/22 14:09:59;;;;;;;10.45;2.80;;;7.20;99.90;;;;;;5075558;28;20058;-72
2022/01/22 14:15:17;;;;;;;9.63;2.00;;;7.20;99.90;;;;;;5075427;28;20044;-72
2022/01/22 14:20:39;;;;;;;8.35;1.92;;;7.10;99.90;;;;;;5075599;28;20044;-72
2022/01/22 14:23:07;;;;;;;9.32;2.42;;;7.10;99.90;;;;;;5075216;28;20055;-72
2022/01/22 14:25:36;;;;;;;13.20;2.10;;;7.10;99.90;;;;;;5075215;28;20418;-72
2022/01/22 14:28:12;;;;;;;11.93;1.73;;;7.10;99.90;;;;;;5075156;28;20036;-72
2022/01/22 14:30:41;;;;;;;14.25;2.17;;;7.10;99.90;;;;;;5075251;28;20441;-72
2022/01/22 14:33:08;;;;;;;10.23;1.60;;;7.20;99.90;;;;;;5075158;28;20387;-72
2022/01/22 14:35:36;;;;;;;9.60;1.80;;;7.10;99.90;;;;;;5075425;28;20097;-72
2022/01/22 14:38:25;;;;;;;13.05;2.08;;;7.10;99.90;;;;;;5075009;28;20036;-72
2022/01/22 14:44:06;;;;;;;5.97;1.47;;;7.10;99.90;;;;;;5075081;28;20086;-72
2022/01/22 14:46:52;;;;;;;12.70;2.13;;;7.10;99.90;;;;;;5075392;28;20628;-72
2022/01/22 14:49:21;;;;;;;7.18;1.90;;;7.10;99.90;;;;;;5075357;28;20127;-73
2022/01/22 14:51:47;;;;;;;9.25;1.50;;;7.10;99.90;;;;;;5074993;28;20042;-73
2022/01/22 14:54:14;;;;;;;9.77;1.40;;;7.10;99.90;;;;;;5075030;28;20036;-73
2022/01/22 14:56:39;;;;;;;12.65;2.10;;;7.10;99.90;;;;;;5074949;28;20525;-73